Time;durP1;ratioP1;P1;durP2;ratioP2;P2;SDS_P1;SDS_P2;PMS_P1;PMS_P2;Temp;Humidity;BMP_temperature;BMP_pressure;BME280_temperature;BME280_humidity;BME280_pressure;Samples;Min_cycle;Max_cycle;Signal;HPM_P1;HPM_P2
2021/05/08 00:01:27;;;;;;;10.85;5.87;;;;;;;4.23;68.10;100401.88;2190951;80;31156;-60
2021/05/08 00:04:30;;;;;;;10.60;5.70;;;;;;;4.19;68.10;100402.84;2198675;80;33004;-60
2021/05/08 00:07:34;;;;;;;10.13;5.90;;;;;;;4.12;68.14;100407.88;2191948;80;28868;-60
2021/05/08 00:10:36;;;;;;;11.38;5.42;;;;;;;4.08;68.30;100406.61;2206211;80;27728;-59
2021/05/08 00:13:41;;;;;;;12.98;5.28;;;;;;;4.05;68.25;100408.46;2189313;80;29731;-59
2021/05/08 00:16:43;;;;;;;9.38;5.62;;;;;;;4.04;68.42;100410.22;2188766;80;31268;-59
2021/05/08 00:19:45;;;;;;;8.45;5.92;;;;;;;4.02;68.42;100419.13;2202268;80;33113;-60
2021/05/08 00:22:48;;;;;;;10.60;6.33;;;;;;;4.01;68.53;100419.55;2195630;80;30231;-60
2021/05/08 00:25:50;;;;;;;11.78;5.83;;;;;;;3.97;68.49;100415.25;2207580;80;28227;-63
2021/05/08 00:28:53;;;;;;;10.78;5.87;;;;;;;3.93;68.62;100421.50;2201257;80;28817;-63
2021/05/08 00:31:57;;;;;;;9.75;6.83;;;;;;;3.89;68.58;100422.47;2191919;80;31155;-63
2021/05/08 00:34:59;;;;;;;11.78;6.28;;;;;;;3.84;68.69;100430.52;2190190;80;34404;-61
2021/05/08 00:38:02;;;;;;;9.45;6.50;;;;;;;3.79;68.70;100425.31;2201377;80;29970;-59
2021/05/08 00:41:04;;;;;;;9.00;5.97;;;;;;;3.74;68.80;100429.81;2181959;80;27880;-58
2021/05/08 00:44:07;;;;;;;12.43;6.28;;;;;;;3.68;68.83;100433.90;2186592;80;28833;-59
2021/05/08 00:47:11;;;;;;;12.75;7.22;;;;;;;3.60;68.84;100439.34;2163693;80;31119;-59
2021/05/08 00:50:16;;;;;;;11.73;7.08;;;;;;;3.54;68.98;100441.23;2157984;80;34120;-60
2021/05/08 00:53:19;;;;;;;8.78;6.28;;;;;;;3.50;69.04;100445.25;2194920;80;29090;-59
2021/05/08 00:56:21;;;;;;;11.78;6.97;;;;;;;3.47;69.04;100437.83;2196997;80;28222;-59
2021/05/08 00:59:23;;;;;;;8.98;5.53;;;;;;;3.46;69.18;100438.72;2143456;81;28683;-59
2021/05/08 01:02:25;;;;;;;8.63;6.03;;;;;;;3.44;69.22;100434.80;2161546;81;31149;-59
2021/05/08 01:05:32;;;;;;;10.30;6.10;;;;;;;3.43;69.30;100439.66;2167678;81;33065;-59
2021/05/08 01:08:32;;;;;;;11.40;6.83;;;;;;;3.40;69.44;100438.39;2160363;81;28868;-59
2021/05/08 01:11:36;;;;;;;11.60;6.50;;;;;;;3.38;69.54;100442.84;2163091;81;27685;-59
2021/05/08 01:14:39;;;;;;;10.23;5.90;;;;;;;3.34;69.61;100435.41;2160535;81;28837;-59
2021/05/08 01:17:42;;;;;;;11.63;6.90;;;;;;;3.33;69.71;100439.39;2158151;81;31278;-59
2021/05/08 01:20:45;;;;;;;9.73;7.42;;;;;;;3.31;69.74;100438.56;2170543;81;33120;-58
2021/05/08 01:23:51;;;;;;;15.63;7.92;;;;;;;3.26;69.73;100441.27;2164819;81;28924;-61
2021/05/08 01:26:54;;;;;;;13.28;6.85;;;;;;;3.22;69.82;100446.65;2157289;81;27797;-59
2021/05/08 01:29:56;;;;;;;11.50;7.15;;;;;;;3.19;69.84;100448.91;2162469;81;28835;-62
2021/05/08 01:32:59;;;;;;;14.00;9.25;;;;;;;3.17;69.96;100447.59;2177370;81;31322;-60
2021/05/08 01:36:03;;;;;;;16.50;8.38;;;;;;;3.16;70.02;100451.14;2173872;81;33649;-60
2021/05/08 01:39:06;;;;;;;11.88;8.25;;;;;;;3.17;69.99;100446.73;2157416;81;28798;-60
2021/05/08 01:42:08;;;;;;;12.93;8.48;;;;;;;3.17;70.00;100454.67;2173662;80;27752;-61
2021/05/08 01:45:18;;;;;;;17.30;9.38;;;;;;;3.17;70.00;100465.27;2175696;81;29820;-61
2021/05/08 01:48:21;;;;;;;15.05;8.90;;;;;;;3.16;69.98;100467.48;2175589;81;31058;-60
2021/05/08 01:51:23;;;;;;;14.47;9.28;;;;;;;3.13;69.97;100468.42;2165068;81;33106;-61
2021/05/08 01:54:26;;;;;;;14.50;9.13;;;;;;;3.10;69.99;100475.08;2175777;81;28854;-61
2021/05/08 01:57:28;;;;;;;16.40;10.18;;;;;;;3.08;69.98;100475.55;2166426;80;27809;-60
2021/05/08 02:00:41;;;;;;;14.55;9.00;;;;;;;3.03;70.01;100473.41;2151638;81;28827;-60
2021/05/08 02:03:47;;;;;;;13.18;8.90;;;;;;;2.99;70.00;100472.59;2142421;81;31582;-61
2021/05/08 02:06:52;;;;;;;19.65;8.83;;;;;;;2.93;70.06;100479.30;2181599;80;34416;-60
2021/05/08 02:09:55;;;;;;;15.50;8.15;;;;;;;2.89;70.16;100475.83;2149469;81;28855;-61
2021/05/08 02:12:59;;;;;;;14.50;8.03;;;;;;;2.86;70.13;100473.69;2178097;80;27698;-60
2021/05/08 02:16:01;;;;;;;11.90;8.03;;;;;;;2.84;70.21;100475.02;2152489;81;28181;-60
2021/05/08 02:19:03;;;;;;;14.83;8.65;;;;;;;2.84;70.24;100482.95;2134724;81;31225;-61
2021/05/08 02:22:09;;;;;;;13.78;7.92;;;;;;;2.83;70.35;100482.53;2175031;81;33113;-60
2021/05/08 02:25:13;;;;;;;13.08;7.97;;;;;;;2.85;70.36;100486.03;2173457;81;28882;-61
2021/05/08 02:28:15;;;;;;;13.70;9.28;;;;;;;2.86;70.40;100482.95;2149647;82;27861;-61
2021/05/08 02:31:17;;;;;;;15.10;8.60;;;;;;;2.88;70.55;100493.06;2150400;81;29275;-61
2021/05/08 02:34:20;;;;;;;13.20;8.10;;;;;;;2.88;70.60;100492.60;2173632;81;31530;-60
2021/05/08 02:37:22;;;;;;;13.85;9.03;;;;;;;2.91;70.84;100489.03;2148374;82;33121;-61
2021/05/08 02:40:27;;;;;;;16.70;8.38;;;;;;;2.97;70.97;100491.59;2168138;81;29159;-63
2021/05/08 02:43:29;;;;;;;11.08;7.40;;;;;;;3.04;71.09;100498.55;2173892;81;27791;-60
2021/05/08 02:46:32;;;;;;;12.65;8.08;;;;;;;3.11;70.98;100499.77;2170787;82;28834;-60
2021/05/08 02:49:34;;;;;;;14.35;7.92;;;;;;;3.16;71.02;100498.78;2178887;81;33486;-59
2021/05/08 02:52:37;;;;;;;11.08;7.42;;;;;;;3.23;71.00;100505.31;2180409;81;34442;-60
2021/05/08 02:55:39;;;;;;;12.88;8.30;;;;;;;3.28;70.97;100507.45;2183092;81;29244;-60
2021/05/08 02:58:41;;;;;;;12.00;7.95;;;;;;;3.34;70.96;100504.69;2183073;81;28189;-61
2021/05/08 03:01:44;;;;;;;12.47;8.18;;;;;;;3.38;70.97;100499.77;2159702;81;29983;-59
2021/05/08 03:04:46;;;;;;;12.88;8.00;;;;;;;3.43;70.90;100499.69;2173149;81;31136;-61
2021/05/08 03:07:48;;;;;;;11.53;8.00;;;;;;;3.45;70.88;100498.78;2183196;81;33104;-60
2021/05/08 03:10:51;;;;;;;11.38;6.83;;;;;;;3.48;70.85;100505.32;2183118;81;30156;-61
2021/05/08 03:13:54;;;;;;;12.47;7.85;;;;;;;3.50;70.92;100505.31;2170879;81;27876;-65
2021/05/08 03:16:57;;;;;;;10.85;7.10;;;;;;;3.52;70.90;100503.95;2169102;81;28826;-64
2021/05/08 03:19:59;;;;;;;9.08;6.03;;;;;;;3.56;71.07;100506.98;2145102;83;32047;-61
2021/05/08 03:23:01;;;;;;;8.15;5.72;;;;;;;3.61;71.17;100504.67;2146808;81;33112;-60
2021/05/08 03:26:04;;;;;;;11.55;5.87;;;;;;;3.70;71.22;100508.07;2145269;83;29171;-60
2021/05/08 03:29:06;;;;;;;7.87;6.33;;;;;;;3.82;71.36;100513.14;2164779;82;27774;-61
2021/05/08 03:32:08;;;;;;;9.73;5.83;;;;;;;3.93;71.37;100513.81;2159539;81;28840;-61
2021/05/08 03:35:11;;;;;;;9.05;6.03;;;;;;;4.05;71.39;100515.36;2159575;81;31363;-62
2021/05/08 03:38:13;;;;;;;8.60;5.85;;;;;;;4.17;71.43;100516.02;2148583;81;33115;-60
2021/05/08 03:41:15;;;;;;;7.97;5.97;;;;;;;4.28;71.51;100520.67;2148949;82;29610;-60
2021/05/08 03:44:18;;;;;;;8.33;6.78;;;;;;;4.39;71.45;100525.73;2177810;81;27634;-61
2021/05/08 03:47:20;;;;;;;14.73;7.40;;;;;;;4.50;71.36;100528.17;2184221;81;28835;-60
2021/05/08 03:50:22;;;;;;;10.53;5.70;;;;;;;4.61;71.33;100530.59;2160571;81;31157;-60
2021/05/08 03:53:26;;;;;;;9.33;6.80;;;;;;;4.71;71.25;100536.15;2153526;81;34471;-60
2021/05/08 03:56:28;;;;;;;9.48;6.75;;;;;;;4.82;71.12;100532.80;2148754;82;30548;-60
2021/05/08 03:59:30;;;;;;;10.23;7.03;;;;;;;4.94;70.97;100537.41;2128201;81;27619;-60
2021/05/08 04:02:32;;;;;;;10.40;6.65;;;;;;;5.07;70.89;100536.21;2158446;81;29097;-60
2021/05/08 04:05:35;;;;;;;8.15;6.40;;;;;;;5.19;70.75;100541.70;2185621;81;31125;-60
2021/05/08 04:08:38;;;;;;;12.10;6.55;;;;;;;5.29;70.63;100541.92;2180138;81;33155;-60
2021/05/08 04:11:40;;;;;;;8.95;6.20;;;;;;;5.42;70.53;100543.80;2152630;81;30045;-63
2021/05/08 04:14:43;;;;;;;9.43;6.72;;;;;;;5.56;70.43;100546.56;2149081;81;27650;-60
2021/05/08 04:17:45;;;;;;;9.48;6.28;;;;;;;5.71;70.32;100551.50;2150584;81;28832;-60
2021/05/08 04:20:48;;;;;;;11.10;7.08;;;;;;;5.83;70.29;100550.31;2149000;81;31876;-60
2021/05/08 04:23:50;;;;;;;12.00;7.12;;;;;;;5.93;70.11;100550.51;2148742;82;33182;-59
2021/05/08 04:26:55;;;;;;;10.28;6.72;;;;;;;6.01;69.84;100554.33;2148896;81;29168;-60
2021/05/08 04:29:57;;;;;;;9.20;6.47;;;;;;;6.07;69.65;100553.28;2182433;81;28191;-60
2021/05/08 04:32:59;;;;;;;8.05;5.60;;;;;;;6.14;69.58;100551.33;2187033;81;28826;-60
2021/05/08 04:36:01;;;;;;;9.00;5.42;;;;;;;6.22;69.52;100551.97;2187001;81;31160;-60
2021/05/08 04:39:05;;;;;;;10.65;6.65;;;;;;;6.30;69.33;100557.97;2154606;81;33109;-60
2021/05/08 04:42:08;;;;;;;9.90;6.12;;;;;;;6.38;69.17;100564.41;2148104;82;29143;-60
2021/05/08 04:45:10;;;;;;;11.55;6.50;;;;;;;6.44;68.95;100566.02;2116880;84;27713;-61
2021/05/08 04:48:30;;;;;;;12.60;7.60;;;;;;;6.52;69.02;100560.89;2125901;82;28884;-60
2021/05/08 04:51:32;;;;;;;16.23;7.95;;;;;;;6.95;69.81;100570.74;2137218;83;31150;-61
2021/05/08 04:54:35;;;;;;;16.35;8.05;;;;;;;7.93;69.85;100562.74;2147044;82;33099;-61
2021/05/08 04:57:38;;;;;;;14.18;8.23;;;;;;;8.90;69.17;100561.05;2153768;82;30384;-61
2021/05/08 05:00:40;;;;;;;14.33;7.80;;;;;;;9.86;68.11;100565.21;2155173;82;27770;-61
2021/05/08 05:03:43;;;;;;;9.25;5.83;;;;;;;10.83;66.59;100556.53;2124739;82;30397;-60
2021/05/08 05:06:45;;;;;;;11.53;5.08;;;;;;;11.65;65.26;100561.52;2118614;82;31234;-61
2021/05/08 05:09:48;;;;;;;8.05;5.55;;;;;;;12.45;64.73;100559.26;2119523;82;33588;-60
2021/05/08 05:12:51;;;;;;;7.47;4.60;;;;;;;13.20;63.25;100557.42;2155332;82;29173;-60
2021/05/08 05:15:53;;;;;;;7.58;4.80;;;;;;;13.96;62.18;100559.81;2154891;82;27677;-61
2021/05/08 05:18:57;;;;;;;6.25;4.58;;;;;;;14.49;60.82;100549.88;2154660;82;28822;-61
2021/05/08 05:21:59;;;;;;;8.78;4.75;;;;;;;15.10;60.21;100548.81;2154807;82;31151;-61
2021/05/08 05:25:03;;;;;;;7.62;4.12;;;;;;;15.69;59.27;100548.53;2150808;82;34071;-61
2021/05/08 05:28:26;;;;;;;6.03;3.83;;;;;;;16.21;57.91;100556.31;2154261;82;29176;-60
2021/05/08 05:31:28;;;;;;;6.42;3.95;;;;;;;16.69;56.28;100554.80;2118700;84;27678;-59
2021/05/08 05:34:30;;;;;;;5.37;4.00;;;;;;;17.41;54.17;100556.81;2120207;82;29284;-60
2021/05/08 05:37:32;;;;;;;6.20;4.08;;;;;;;17.41;54.17;100556.81;2156925;81;31206;-60
2021/05/08 05:40:34;;;;;;;7.30;4.03;;;;;;;17.76;52.78;100574.12;2193350;81;33562;-60
2021/05/08 05:43:36;;;;;;;5.92;4.20;;;;;;;17.76;52.78;100574.12;2166343;81;29198;-60
2021/05/08 05:46:38;;;;;;;11.20;3.98;;;;;;;18.04;52.28;100576.95;2133130;81;27683;-61
2021/05/08 05:49:43;;;;;;;8.05;4.58;;;;;;;18.25;49.98;100580.86;2119040;81;28887;-61
2021/05/08 05:52:47;;;;;;;7.37;4.53;;;;;;;18.49;50.75;100580.80;2118559;84;31204;-60
2021/05/08 05:55:50;;;;;;;6.87;4.00;;;;;;;18.75;49.81;100582.80;2118773;82;33225;-61
2021/05/08 05:58:53;;;;;;;6.65;4.22;;;;;;;18.92;49.26;100577.86;2150240;82;29161;-61
2021/05/08 06:01:56;;;;;;;7.40;3.70;;;;;;;19.11;48.61;100588.97;2155595;81;27778;-61
2021/05/08 06:04:59;;;;;;;4.28;3.17;;;;;;;19.46;48.26;100573.98;2146117;82;31103;-62
2021/05/08 06:08:01;;;;;;;4.05;3.35;;;;;;;19.81;47.15;100579.20;2154806;82;31088;-62
2021/05/08 06:11:05;;;;;;;5.47;3.85;;;;;;;20.14;46.65;100575.99;2132142;81;33164;-61
2021/05/08 06:14:07;;;;;;;3.98;3.58;;;;;;;20.37;45.75;100581.28;2118903;84;30107;-61
2021/05/08 06:17:09;;;;;;;5.10;3.92;;;;;;;20.70;45.37;100575.77;2118860;84;27663;-61
2021/05/08 06:20:13;;;;;;;3.98;3.58;;;;;;;21.01;44.97;100582.59;2153363;81;28880;-62
2021/05/08 06:23:15;;;;;;;7.75;4.60;;;;;;;21.27;43.44;100584.81;2147725;81;31196;-62
2021/05/08 06:26:17;;;;;;;5.80;3.92;;;;;;;21.33;43.34;100582.91;2118737;83;34519;-60
2021/05/08 06:29:20;;;;;;;4.12;3.75;;;;;;;21.45;42.59;100590.48;2146701;81;31508;-60
2021/05/08 06:32:22;;;;;;;8.90;6.50;;;;;;;21.67;42.70;100594.36;2154010;82;28311;-61
2021/05/08 06:35:24;;;;;;;5.83;4.25;;;;;;;21.96;41.44;100590.78;2154739;82;28816;-60
2021/05/08 06:38:26;;;;;;;6.12;3.55;;;;;;;22.09;40.55;100593.20;2158523;81;32159;-62
2021/05/08 06:41:28;;;;;;;4.60;3.25;;;;;;;22.14;40.02;100595.00;2175289;81;35421;-61
2021/05/08 06:44:31;;;;;;;3.50;3.20;;;;;;;22.30;39.90;100602.62;2165721;81;29212;-61
2021/05/08 06:47:33;;;;;;;3.40;3.10;;;;;;;22.26;39.08;100597.08;2154763;82;27693;-62
2021/05/08 06:50:35;;;;;;;4.87;3.67;;;;;;;22.30;38.76;100595.80;2156633;81;30082;-63
2021/05/08 06:53:38;;;;;;;4.75;3.58;;;;;;;22.56;39.33;100594.34;2159340;81;31075;-62
2021/05/08 06:56:41;;;;;;;7.95;3.75;;;;;;;22.80;38.95;100585.65;2157454;82;33114;-61
2021/05/08 06:59:44;;;;;;;5.05;4.08;;;;;;;22.73;38.17;100603.14;2181826;81;29152;-60
2021/05/08 07:02:46;;;;;;;4.80;3.35;;;;;;;22.54;37.36;100594.47;2179517;81;27776;-61
2021/05/08 07:05:49;;;;;;;4.12;3.17;;;;;;;22.50;37.53;100601.26;2171395;81;28448;-64
2021/05/08 07:08:53;;;;;;;8.08;4.67;;;;;;;22.47;37.11;100604.28;2173842;81;31153;-75
2021/05/08 07:11:55;;;;;;;6.55;3.62;;;;;;;22.48;37.09;100603.76;2182514;81;33980;-75
2021/05/08 07:14:57;;;;;;;4.22;3.00;;;;;;;22.40;36.35;100599.87;2180552;81;29158;-61
2021/05/08 07:18:05;;;;;;;7.25;3.17;;;;;;;22.19;35.95;100599.17;2175254;81;27714;-60
2021/05/08 07:21:07;;;;;;;4.55;2.87;;;;;;;22.16;35.48;100597.61;2148589;82;29425;-60
2021/05/08 07:24:10;;;;;;;6.92;3.65;;;;;;;22.05;35.21;100591.79;2181570;81;32118;-60
2021/05/08 07:27:12;;;;;;;6.33;3.87;;;;;;;22.13;35.29;100601.98;2180666;81;34503;-59
2021/05/08 07:30:16;;;;;;;4.00;2.47;;;;;;;22.07;35.26;100595.24;2181618;81;29162;-61
2021/05/08 07:33:19;;;;;;;3.47;2.70;;;;;;;22.17;35.09;100591.14;2181683;81;28188;-62
2021/05/08 07:36:21;;;;;;;6.93;3.40;;;;;;;22.24;34.79;100592.78;2182397;81;28895;-62
2021/05/08 07:39:24;;;;;;;4.83;3.00;;;;;;;22.25;33.93;100588.53;2133492;81;31229;-62
2021/05/08 07:42:26;;;;;;;3.83;2.95;;;;;;;21.92;34.57;100598.05;2182201;81;35467;-62
2021/05/08 07:45:30;;;;;;;3.70;2.77;;;;;;;21.95;34.11;100601.34;2182111;81;29161;-61
2021/05/08 07:48:32;;;;;;;6.67;3.10;;;;;;;22.00;34.35;100603.14;2177788;81;27704;-61
2021/05/08 07:51:35;;;;;;;4.40;3.33;;;;;;;22.22;34.56;100597.01;2180177;81;29699;-61
2021/05/08 07:54:37;;;;;;;5.67;3.65;;;;;;;22.52;34.23;100596.48;2182382;81;31576;-61
2021/05/08 07:57:41;;;;;;;6.62;3.02;;;;;;;22.73;34.12;100603.63;2176185;81;33113;-61
2021/05/08 08:00:43;;;;;;;6.37;3.08;;;;;;;22.97;33.37;100594.06;2176734;81;29156;-61
2021/05/08 08:03:45;;;;;;;5.28;2.87;;;;;;;23.10;32.51;100599.17;2171369;81;27669;-61
2021/05/08 08:06:48;;;;;;;5.47;3.55;;;;;;;22.85;33.19;100594.23;2166438;82;28827;-61
2021/05/08 08:09:50;;;;;;;6.92;3.50;;;;;;;22.37;32.87;100605.63;2172599;81;31162;-62
2021/05/08 08:12:53;;;;;;;6.37;3.67;;;;;;;21.77;32.93;100607.98;2177415;81;34245;-61
2021/05/08 08:15:56;;;;;;;6.28;4.80;;;;;;;21.20;33.29;100611.76;2178239;81;30183;-62
2021/05/08 08:19:01;;;;;;;6.97;3.30;;;;;;;20.66;32.78;100617.38;2178458;81;27631;-61
2021/05/08 08:22:03;;;;;;;5.78;3.17;;;;;;;20.40;33.44;100621.84;2158851;81;28824;-61
2021/05/08 08:25:10;;;;;;;5.37;3.22;;;;;;;20.33;33.19;100622.03;2153015;82;33477;-62
2021/05/08 08:28:12;;;;;;;3.83;2.77;;;;;;;20.12;33.34;100621.50;2156538;82;32421;-61
2021/05/08 08:31:14;;;;;;;4.33;3.22;;;;;;;19.73;33.08;100625.18;2159486;81;29126;-60
2021/05/08 08:34:17;;;;;;;9.00;3.40;;;;;;;19.39;33.73;100636.12;2158292;81;27766;-61
2021/05/08 08:37:19;;;;;;;3.95;2.87;;;;;;;19.07;33.76;100632.33;2147526;81;28827;-61
2021/05/08 08:40:22;;;;;;;4.60;3.02;;;;;;;18.92;33.85;100638.44;2161788;81;31199;-61
2021/05/08 08:43:24;;;;;;;4.95;2.77;;;;;;;19.17;34.34;100629.73;2136552;82;33122;-61
2021/05/08 08:46:27;;;;;;;4.10;2.98;;;;;;;19.59;33.89;100624.98;2149903;82;31444;-61
2021/05/08 08:49:29;;;;;;;3.85;2.45;;;;;;;19.92;34.51;100616.87;2151280;82;28383;-61
2021/05/08 08:52:32;;;;;;;7.05;2.92;;;;;;;20.41;34.08;100620.00;2176957;80;29293;-70
2021/05/08 08:55:36;;;;;;;3.75;3.22;;;;;;;20.72;33.29;100613.25;2179778;80;31284;-70
2021/05/08 08:58:41;;;;;;;4.77;3.10;;;;;;;21.00;33.55;100617.16;2178138;80;33208;-61
2021/05/08 09:01:43;;;;;;;11.63;3.17;;;;;;;21.12;33.25;100619.26;2153016;80;29250;-61
2021/05/08 09:04:45;;;;;;;4.90;2.72;;;;;;;20.94;32.64;100628.06;2148530;81;27639;-62
2021/05/08 09:07:49;;;;;;;3.37;2.58;;;;;;;20.70;31.65;100622.05;2176187;80;28830;-63
2021/05/08 09:10:51;;;;;;;4.25;2.87;;;;;;;20.49;32.12;100621.55;2147766;81;31136;-61
2021/05/08 09:14:23;;;;;;;5.03;2.70;;;;;;;20.03;31.31;100616.82;2148345;81;33200;-62
2021/05/08 09:17:26;;;;;;;4.20;3.02;;;;;;;19.57;32.17;100625.09;2179120;80;29158;-61
2021/05/08 09:20:46;;;;;;;3.30;2.80;;;;;;;19.59;33.05;100627.70;2147128;81;28223;-63
2021/05/08 09:23:48;;;;;;;5.10;2.87;;;;;;;19.64;32.97;100621.88;2177714;81;29799;-61
2021/05/08 09:26:52;;;;;;;3.00;2.70;;;;;;;19.68;33.00;100620.13;2185349;80;31805;-68
2021/05/08 09:30:15;;;;;;;6.00;4.00;;;;;;;19.85;32.73;100617.86;2137842;83;33460;-67
2021/05/08 09:33:25;;;;;;;4.35;3.95;;;;;;;19.92;32.92;100619.12;2147813;81;29180;-68
2021/05/08 09:36:29;;;;;;;5.78;3.47;;;;;;;20.03;32.39;100621.78;2156879;81;27685;-62
2021/05/08 09:39:33;;;;;;;4.00;2.75;;;;;;;20.16;32.80;100615.29;2111858;81;28836;-61
2021/05/08 09:42:51;;;;;;;4.65;3.67;;;;;;;20.12;32.31;100614.70;2172294;81;32565;-61
2021/05/08 09:45:54;;;;;;;3.33;2.80;;;;;;;19.97;31.65;100621.44;2161538;81;32268;-61
2021/05/08 09:49:10;;;;;;;4.47;2.80;;;;;;;19.87;31.99;100622.70;2152760;81;30199;-61
2021/05/08 09:52:13;;;;;;;5.45;3.80;;;;;;;19.77;32.29;100623.94;2164044;81;27852;-60
2021/05/08 09:55:17;;;;;;;3.90;3.52;;;;;;;19.56;31.59;100622.00;2167824;81;29569;-61
2021/05/08 09:58:25;;;;;;;6.90;4.50;;;;;;;19.41;32.09;100621.44;2163205;81;31151;-61
2021/05/08 10:01:27;;;;;;;4.42;4.00;;;;;;;19.33;32.09;100613.03;2158759;81;33126;-60
2021/05/08 10:07:54;;;;;;;5.40;4.70;;;;;;;19.37;32.41;100617.23;2328155;76;27787;-60
2021/05/08 10:10:56;;;;;;;4.12;3.60;;;;;;;19.28;31.57;100617.49;2281741;77;28194;-60
2021/05/08 10:13:58;;;;;;;7.37;3.55;;;;;;;18.96;31.52;100610.10;2275518;77;28887;-61
2021/05/08 10:17:00;;;;;;;3.80;3.42;;;;;;;18.86;31.77;100609.56;2294614;77;31119;-61
2021/05/08 10:20:07;;;;;;;4.75;3.50;;;;;;;18.88;31.85;100600.81;2273761;77;33521;-72
2021/05/08 10:23:12;;;;;;;6.65;4.67;;;;;;;18.86;31.52;100604.14;2282334;77;29436;-73
2021/05/08 10:26:14;;;;;;;6.40;4.22;;;;;;;18.91;31.47;100604.64;2275711;77;27668;-69
2021/05/08 10:29:17;;;;;;;5.92;4.33;;;;;;;19.01;31.60;100602.09;2293920;77;28793;-68
2021/05/08 10:32:20;;;;;;;3.92;3.52;;;;;;;19.10;31.12;100598.14;2281625;77;31187;-70
2021/05/08 10:35:45;;;;;;;4.28;3.87;;;;;;;19.12;30.68;100593.92;2282465;77;33126;-69
2021/05/08 10:39:06;;;;;;;5.23;4.73;;;;;;;19.12;32.00;100599.36;2291218;77;28907;-61
2021/05/08 10:42:11;;;;;;;4.47;4.08;;;;;;;19.15;31.64;100586.02;2279412;77;27774;-61
2021/05/08 10:45:24;;;;;;;5.85;3.50;;;;;;;19.15;31.85;100582.82;2284121;77;29785;-60
2021/05/08 10:48:26;;;;;;;7.10;4.78;;;;;;;19.12;30.63;100588.50;2277781;77;31236;-62
2021/05/08 10:51:56;;;;;;;5.83;5.22;;;;;;;18.81;30.55;100587.72;2274550;77;33105;-62
2021/05/08 10:54:59;;;;;;;5.00;4.50;;;;;;;18.67;30.78;100590.19;2294754;77;30215;-61
2021/05/08 10:58:22;;;;;;;6.70;4.45;;;;;;;18.66;31.47;100584.39;2277392;77;28203;-61
2021/05/08 11:01:41;;;;;;;4.47;4.08;;;;;;;18.80;32.03;100582.42;2304987;77;28805;-62
2021/05/08 11:05:23;;;;;;;6.97;4.28;;;;;;;18.85;30.45;100586.12;2305065;77;31141;-62
2021/05/08 11:08:31;;;;;;;5.67;4.20;;;;;;;18.74;30.78;100582.90;2304774;77;34080;-65
2021/05/08 11:11:50;;;;;;;5.12;4.05;;;;;;;18.73;31.10;100580.70;2307804;77;28914;-62
2021/05/08 11:14:56;;;;;;;6.72;4.70;;;;;;;18.60;30.44;100580.80;2296356;77;27638;-64
2021/05/08 11:18:01;;;;;;;5.47;4.12;;;;;;;18.48;31.40;100585.84;2305137;77;28803;-61
2021/05/08 11:21:14;;;;;;;4.75;4.30;;;;;;;18.45;31.33;100587.44;2306146;77;32159;-62
2021/05/08 11:24:35;;;;;;;10.60;6.53;;;;;;;18.28;31.21;100588.26;2304350;77;33109;-61
2021/05/08 11:27:37;;;;;;;5.22;4.03;;;;;;;18.03;31.06;100582.03;2295069;77;30228;-62
2021/05/08 11:30:56;;;;;;;5.15;4.42;;;;;;;17.98;32.13;100582.87;2295579;77;27660;-62
2021/05/08 11:34:22;;;;;;;5.78;3.80;;;;;;;18.06;31.66;100577.70;2276547;77;28922;-62
2021/05/08 11:37:24;;;;;;;5.65;4.33;;;;;;;18.18;32.82;100581.33;2218663;80;31155;-62
2021/05/08 11:40:32;;;;;;;5.87;4.87;;;;;;;18.37;32.86;100577.19;2238905;79;33113;-62
2021/05/08 11:43:35;;;;;;;5.28;4.70;;;;;;;18.50;31.94;100566.24;2244808;78;28998;-60
2021/05/08 11:46:38;;;;;;;6.15;4.42;;;;;;;18.50;32.20;100568.45;2258775;78;28121;-60
2021/05/08 11:49:41;;;;;;;8.30;4.17;;;;;;;18.43;31.48;100565.87;2258512;78;31156;-60
2021/05/08 11:52:52;;;;;;;4.50;4.10;;;;;;;18.38;31.95;100565.35;2252633;78;31121;-60
2021/05/08 11:55:54;;;;;;;6.50;4.37;;;;;;;18.28;31.01;100577.92;2186589;80;33608;-61
2021/05/08 11:58:56;;;;;;;4.60;4.10;;;;;;;18.13;31.79;100571.83;2218637;80;28752;-60
2021/05/08 12:02:18;;;;;;;5.83;3.80;;;;;;;18.05;31.47;100575.13;2218875;80;27749;-60
2021/05/08 12:05:25;;;;;;;7.10;4.85;;;;;;;18.02;31.70;100577.59;2218776;80;28865;-61
2021/05/08 12:08:27;;;;;;;6.30;5.15;;;;;;;18.04;32.26;100574.75;2203943;80;31119;-60
2021/05/08 12:11:30;;;;;;;12.95;5.53;;;;;;;17.98;31.29;100567.08;2225461;78;33185;-60
2021/05/08 12:14:41;;;;;;;6.72;5.28;;;;;;;17.99;32.11;100566.09;2226052;80;29036;-61
2021/05/08 12:17:43;;;;;;;5.37;4.42;;;;;;;18.16;32.11;100562.10;2226219;78;28019;-60
2021/05/08 12:20:55;;;;;;;7.08;5.85;;;;;;;18.33;32.22;100556.23;2315973;76;31931;-60
2021/05/08 12:24:12;;;;;;;6.60;5.90;;;;;;;18.33;32.19;100552.64;2275770;76;27954;-59
2021/05/08 12:27:25;;;;;;;4.53;4.05;;;;;;;18.66;32.02;100556.38;2343098;76;32312;-60
2021/05/08 12:30:38;;;;;;;6.37;5.00;;;;;;;18.76;31.88;100543.81;2246292;78;27731;-59
2021/05/08 12:33:52;;;;;;;7.12;5.05;;;;;;;18.83;32.11;100559.95;2343090;76;27684;-60
2021/05/08 12:37:05;;;;;;;6.05;4.83;;;;;;;18.87;31.75;100543.43;2307545;76;27724;-59
2021/05/08 12:40:31;;;;;;;6.30;4.35;;;;;;;18.94;32.05;100538.77;2339154;76;32329;-59
2021/05/08 12:43:48;;;;;;;4.95;4.45;;;;;;;19.11;31.64;100539.24;2297211;77;27717;-60
2021/05/08 12:53:46;;;;;;;6.80;3.20;;;;;;;19.44;30.97;100521.98;2234176;79;27593;-60
2021/05/08 12:57:14;;;;;;;5.22;3.30;;;;;;;19.57;30.22;100514.19;2250969;77;27725;-60
2021/05/08 13:00:32;;;;;;;3.75;3.45;;;;;;;19.64;29.63;100522.67;2238093;77;27531;-60
2021/05/08 13:03:45;;;;;;;4.53;4.10;;;;;;;19.57;29.42;100519.11;2248599;78;27721;-60
2021/05/08 13:07:29;;;;;;;5.12;4.22;;;;;;;19.42;29.64;100513.61;2250936;77;27735;-59
2021/05/08 13:10:43;;;;;;;5.40;4.33;;;;;;;19.28;29.73;100514.27;2285397;76;27600;-60
2021/05/08 13:14:24;;;;;;;5.13;4.47;;;;;;;19.20;29.97;100511.31;2266035;76;34987;-59
2021/05/08 13:17:37;;;;;;;5.12;4.42;;;;;;;19.38;29.68;100512.13;2259535;77;27733;-60
2021/05/08 13:20:50;;;;;;;6.10;5.50;;;;;;;19.47;30.25;100511.37;2286044;76;28247;-60
2021/05/08 13:24:05;;;;;;;5.92;4.15;;;;;;;19.45;29.89;100505.20;2244174;78;27795;-60
2021/05/08 13:27:18;;;;;;;6.00;3.80;;;;;;;19.31;29.78;100512.30;2297227;76;27938;-60
2021/05/08 13:30:33;;;;;;;3.50;3.02;;;;;;;19.04;29.35;100517.16;2251983;77;27687;-60
2021/05/08 13:33:48;;;;;;;3.35;3.05;;;;;;;18.80;29.72;100516.77;2217076;77;27751;-61
2021/05/08 13:37:01;;;;;;;4.03;2.90;;;;;;;18.52;29.18;100519.51;2251470;77;27675;-59
2021/05/08 13:40:16;;;;;;;23.90;16.80;;;;;;;18.39;30.21;100518.26;2343164;76;27652;-59
2021/05/08 13:43:29;;;;;;;13.10;8.70;;;;;;;18.27;29.25;100511.09;2343090;75;32735;-60
2021/05/08 13:46:42;;;;;;;11.10;8.25;;;;;;;18.05;29.54;100519.55;2296449;77;32309;-59
2021/05/08 13:49:58;;;;;;;10.10;8.65;;;;;;;17.86;30.62;100525.00;2343153;76;32261;-59
2021/05/08 13:53:20;;;;;;;5.95;3.65;;;;;;;17.75;30.51;100519.05;2329259;76;32266;-60
2021/05/08 13:56:32;;;;;;;9.58;7.60;;;;;;;17.71;30.30;100515.34;2248334;78;32332;-60
2021/05/08 13:59:50;;;;;;;4.85;3.77;;;;;;;17.75;30.37;100519.55;2342640;76;32225;-59
2021/05/08 14:03:03;;;;;;;5.08;3.95;;;;;;;17.74;30.05;100520.03;2343102;76;32446;-60
2021/05/08 14:06:16;;;;;;;3.30;3.00;;;;;;;17.71;29.79;100514.84;2342274;76;32316;-60
2021/05/08 14:09:29;;;;;;;3.77;2.75;;;;;;;17.66;29.96;100520.23;2252298;77;32276;-60
2021/05/08 14:12:47;;;;;;;6.42;4.37;;;;;;;17.65;29.73;100503.61;2343152;76;32225;-60
2021/05/08 14:16:00;;;;;;;6.87;3.85;;;;;;;17.55;30.00;100505.67;2341863;76;32332;-59
2021/05/08 14:19:15;;;;;;;5.80;5.20;;;;;;;17.40;29.87;100509.04;2343065;76;33167;-59
2021/05/08 14:22:48;;;;;;;3.80;3.37;;;;;;;17.27;30.32;100508.23;2297228;77;32290;-60
2021/05/08 14:26:01;;;;;;;5.25;4.40;;;;;;;17.18;30.36;100507.08;2341532;76;32694;-60
2021/05/08 14:29:14;;;;;;;10.63;4.15;;;;;;;17.08;29.78;100505.54;2252349;77;32308;-59
2021/05/08 14:32:28;;;;;;;4.37;3.83;;;;;;;16.94;29.45;100507.89;2342799;76;27658;-60
2021/05/08 14:35:42;;;;;;;4.40;3.90;;;;;;;16.86;29.45;100496.75;2237161;77;32576;-60
2021/05/08 14:38:55;;;;;;;6.20;4.62;;;;;;;16.83;29.77;100506.44;2343153;76;32661;-60